Terminal Aerodrome Forecast
Issued by NWS

Current Version | Previous Version | Text Only | Print | Product List | Glossary On
Versions: 1 2 3 4 5 6 7 8 9 10 11 12 13 14 15 16 17 18 19 20 21 22 23 24 25 26 27 28 29 30
000 FTUS41 KOKX 041605 AAB TAFHPN TAF AMD KHPN 041605Z 0416/0512 12011G17KT P6SM BKN020 BKN050 FM041700 11011G17KT P6SM SCT025 BKN050 FM050000 07008KT P6SM BKN100 FM050700 VRB05KT P6SM SCT250 AMD NOT SKED=

USA.gov is the U.S. government's official web portal to all federal, state and local government web resources and services.